Time;durP1;ratioP1;P1;durP2;ratioP2;P2;SDS_P1;SDS_P2;PMS_P1;PMS_P2;Temp;Humidity;BMP_temperature;BMP_pressure;BME280_temperature;BME280_humidity;BME280_pressure;Samples;Min_cycle;Max_cycle;Signal;HPM_P1;HPM_P2
2022/11/11 00:00:11;;;;;;;5.57;3.38;;;11.90;99.90;;;;;;5089639;28;20035;-55
2022/11/11 00:02:37;;;;;;;6.38;3.05;;;11.90;99.90;;;;;;5088983;28;20086;-53
2022/11/11 00:05:02;;;;;;;10.45;3.17;;;11.90;99.90;;;;;;5071705;28;20020;-57
2022/11/11 00:07:28;;;;;;;7.47;3.20;;;11.90;99.90;;;;;;5089371;28;20028;-56
2022/11/11 00:09:53;;;;;;;6.38;2.97;;;11.90;99.90;;;;;;5089388;28;20024;-54
2022/11/11 00:12:22;;;;;;;5.18;3.33;;;11.90;99.90;;;;;;5088604;28;20032;-55
2022/11/11 00:14:48;;;;;;;5.72;3.47;;;11.90;99.90;;;;;;5073630;28;20028;-52
2022/11/11 00:25:25;;;;;;;8.88;3.80;;;11.80;99.90;;;;;;5089265;28;20042;-55
2022/11/11 00:27:51;;;;;;;4.93;3.47;;;11.80;99.90;;;;;;5089013;28;20024;-55
2022/11/11 00:30:16;;;;;;;10.07;4.32;;;11.80;99.90;;;;;;5089015;28;20047;-53
2022/11/11 00:32:42;;;;;;;7.18;4.30;;;11.90;99.90;;;;;;5088690;28;20105;-52
2022/11/11 00:37:52;;;;;;;16.05;4.47;;;11.80;99.90;;;;;;5074753;28;20500;-54
2022/11/11 00:40:18;;;;;;;8.65;4.50;;;11.80;99.90;;;;;;5088550;28;20036;-53
2022/11/11 00:42:43;;;;;;;8.70;4.43;;;11.80;99.90;;;;;;5088690;28;20035;-53
2022/11/11 00:45:10;;;;;;;10.60;4.57;;;11.80;99.90;;;;;;5076490;28;20494;-52
2022/11/11 00:53:18;;;;;;;8.20;4.10;;;11.80;99.90;;;;;;5088129;28;20518;-52
2022/11/11 00:55:44;;;;;;;7.57;4.35;;;11.80;99.90;;;;;;5088916;28;20492;-53
2022/11/11 00:58:09;;;;;;;9.25;4.18;;;11.80;99.90;;;;;;5070436;28;20066;-51
2022/11/11 01:00:35;;;;;;;4.55;3.70;;;11.80;99.90;;;;;;5088206;28;20024;-52
2022/11/11 01:03:00;;;;;;;10.38;4.03;;;11.80;99.90;;;;;;5088939;28;20028;-51
2022/11/11 01:05:26;;;;;;;5.80;4.10;;;11.80;99.90;;;;;;5058906;28;20107;-53
2022/11/11 01:07:52;;;;;;;8.25;4.88;;;11.80;99.90;;;;;;5088419;28;20027;-49
2022/11/11 01:13:13;;;;;;;6.07;4.13;;;11.80;99.90;;;;;;5088042;28;20398;-51
2022/11/11 01:15:43;;;;;;;;;;;11.90;99.90;;;;;;5089042;28;20036;-51
2022/11/11 01:18:10;;;;;;;10.55;4.50;;;11.90;99.90;;;;;;5088525;28;19904;-51
2022/11/11 01:20:36;;;;;;;9.95;4.40;;;11.80;99.90;;;;;;5088280;28;20068;-52
2022/11/11 01:23:06;;;;;;;9.73;3.92;;;11.80;99.90;;;;;;5088336;28;20028;-52
2022/11/11 01:25:34;;;;;;;5.55;3.88;;;11.80;99.90;;;;;;5088232;28;20031;-49
2022/11/11 01:28:00;;;;;;;6.82;3.75;;;11.80;99.90;;;;;;5088246;28;20028;-52
2022/11/11 01:30:26;;;;;;;11.40;3.83;;;11.80;99.90;;;;;;5088341;28;20032;-53
2022/11/11 01:32:51;;;;;;;6.05;3.58;;;11.80;99.90;;;;;;5088287;28;20032;-51
2022/11/11 01:35:17;;;;;;;8.32;4.45;;;11.80;99.90;;;;;;5076299;28;20109;-52
2022/11/11 01:37:42;;;;;;;5.45;3.58;;;11.80;99.90;;;;;;5088492;28;20059;-52
2022/11/11 01:40:10;;;;;;;13.32;3.83;;;11.90;99.90;;;;;;5088016;28;20073;-53
2022/11/11 01:43:05;;;;;;;6.07;3.70;;;11.90;99.90;;;;;;5086918;28;20049;-54
2022/11/11 01:45:45;;;;;;;6.60;3.50;;;11.80;99.90;;;;;;5069110;28;20043;-52
2022/11/11 01:51:35;;;;;;;6.55;3.80;;;11.80;99.90;;;;;;5091690;28;20035;-51
2022/11/11 01:54:05;;;;;;;11.88;4.63;;;11.80;99.90;;;;;;5092061;28;20031;-52
2022/11/11 01:56:30;;;;;;;6.35;3.50;;;11.80;99.90;;;;;;5092155;28;20107;-54
2022/11/11 01:59:01;;;;;;;8.90;3.83;;;11.90;99.90;;;;;;5090031;28;20175;-53
2022/11/11 02:01:27;;;;;;;8.65;3.85;;;11.90;99.90;;;;;;5088974;28;20459;-50
2022/11/11 02:06:39;;;;;;;8.45;3.55;;;11.90;99.90;;;;;;5087325;28;20497;-51
2022/11/11 02:09:06;;;;;;;9.55;4.40;;;11.90;99.90;;;;;;5091465;28;20032;-51
2022/11/11 02:14:34;;;;;;;6.07;3.17;;;11.80;99.90;;;;;;5090283;28;20652;-52
2022/11/11 02:17:04;;;;;;;6.18;3.45;;;11.80;99.90;;;;;;5092120;28;20109;-50
2022/11/11 02:19:57;;;;;;;8.52;4.03;;;11.90;99.90;;;;;;5091572;28;20047;-50
2022/11/11 02:22:28;;;;;;;9.57;3.75;;;11.90;99.90;;;;;;5086862;28;20075;-50
2022/11/11 02:24:55;;;;;;;10.40;4.68;;;11.90;99.90;;;;;;5091378;28;20032;-52
2022/11/11 02:27:23;;;;;;;8.05;3.75;;;11.90;99.90;;;;;;5081767;28;20388;-51
2022/11/11 02:29:52;;;;;;;10.18;4.35;;;11.80;99.90;;;;;;5091163;28;20008;-50
2022/11/11 02:32:18;;;;;;;11.02;3.95;;;11.80;99.90;;;;;;5081461;28;20028;-52
2022/11/11 02:34:43;;;;;;;7.47;4.05;;;11.80;99.90;;;;;;5091610;28;20039;-51
2022/11/11 02:37:10;;;;;;;9.77;4.90;;;11.80;99.90;;;;;;5081691;28;20036;-51
2022/11/11 02:39:42;;;;;;;4.82;3.90;;;11.80;99.90;;;;;;5196076;22;20047;-53
2022/11/11 02:42:09;;;;;;;10.82;4.20;;;11.80;99.90;;;;;;5088331;28;20069;-55
2022/11/11 02:44:39;;;;;;;7.03;3.72;;;11.80;99.90;;;;;;5091406;28;20369;-54
2022/11/11 02:47:05;;;;;;;9.13;4.15;;;11.80;99.90;;;;;;5090485;28;20020;-56
2022/11/11 02:49:31;;;;;;;8.35;4.40;;;11.80;99.90;;;;;;5094125;28;20023;-55
2022/11/11 02:51:56;;;;;;;5.88;4.40;;;11.80;99.90;;;;;;5108296;28;20554;-57
2022/11/11 02:54:22;;;;;;;11.80;4.05;;;11.80;99.90;;;;;;5110027;28;20044;-54
2022/11/11 02:59:31;;;;;;;7.75;4.90;;;11.80;99.90;;;;;;5106328;28;20093;-54
2022/11/11 03:01:57;;;;;;;7.63;4.53;;;11.80;99.90;;;;;;5104147;28;20028;-54
2022/11/11 03:04:22;;;;;;;8.32;4.40;;;11.80;99.90;;;;;;5111301;28;20031;-52
2022/11/11 03:06:48;;;;;;;10.65;4.57;;;11.80;99.90;;;;;;5109603;28;20031;-53
2022/11/11 03:09:14;;;;;;;8.25;4.30;;;11.70;99.90;;;;;;5102899;28;20024;-55
2022/11/11 03:11:40;;;;;;;7.20;4.80;;;11.70;99.90;;;;;;5101577;28;20104;-55
2022/11/11 03:14:07;;;;;;;10.45;4.85;;;11.80;99.90;;;;;;5111572;28;20023;-55
2022/11/11 03:19:17;;;;;;;6.50;4.40;;;11.70;99.90;;;;;;5107080;28;20050;-55
2022/11/11 03:21:42;;;;;;;9.23;3.85;;;11.70;99.90;;;;;;5100674;28;20036;-55
2022/11/11 03:24:08;;;;;;;9.85;4.60;;;11.60;99.90;;;;;;5107985;28;20027;-51
2022/11/11 03:26:33;;;;;;;8.07;4.10;;;11.60;99.90;;;;;;5099060;28;20020;-54
2022/11/11 03:28:59;;;;;;;8.80;4.18;;;11.60;99.90;;;;;;5107883;28;20414;-52
2022/11/11 03:31:25;;;;;;;6.82;4.32;;;11.60;99.90;;;;;;5105001;28;20015;-54
2022/11/11 03:33:50;;;;;;;6.25;3.83;;;11.50;99.90;;;;;;5103552;28;20027;-51
2022/11/11 03:36:16;;;;;;;10.48;4.28;;;11.50;99.90;;;;;;5104367;28;20036;-53
2022/11/11 03:38:41;;;;;;;9.32;4.15;;;11.50;99.90;;;;;;5105433;28;20020;-52
2022/11/11 03:41:07;;;;;;;8.20;4.35;;;11.50;99.90;;;;;;5105548;28;20692;-54
2022/11/11 03:43:34;;;;;;;5.68;3.85;;;11.50;99.90;;;;;;5110243;28;20053;-55
2022/11/11 03:46:02;;;;;;;12.73;4.55;;;11.50;99.90;;;;;;5089275;28;20024;-53
2022/11/11 03:48:30;;;;;;;11.02;4.05;;;11.40;99.90;;;;;;5109424;28;20016;-53
2022/11/11 03:50:56;;;;;;;7.18;4.15;;;11.50;99.90;;;;;;5110868;28;20530;-55
2022/11/11 03:53:22;;;;;;;7.03;4.90;;;11.40;99.90;;;;;;5110089;28;20044;-52
2022/11/11 03:55:48;;;;;;;7.20;4.15;;;11.40;99.90;;;;;;5109829;28;20066;-56
2022/11/11 03:58:15;;;;;;;7.43;4.20;;;11.40;99.90;;;;;;5105551;28;20028;-55
2022/11/11 04:00:41;;;;;;;8.88;4.75;;;11.40;99.90;;;;;;5104618;28;20027;-55
2022/11/11 04:11:22;;;;;;;9.02;4.15;;;11.40;99.90;;;;;;5107947;28;20038;-55
2022/11/11 04:16:33;;;;;;;8.75;4.05;;;11.30;99.90;;;;;;5102313;28;20399;-54
2022/11/11 04:21:43;;;;;;;9.13;4.57;;;11.30;99.90;;;;;;5101228;28;20077;-52
2022/11/11 04:27:00;;;;;;;9.52;4.43;;;11.30;99.90;;;;;;5110007;28;20030;-54
2022/11/11 04:29:29;;;;;;;7.47;4.38;;;11.30;99.90;;;;;;5105902;28;20107;-56
2022/11/11 04:34:44;;;;;;;8.38;4.40;;;11.20;99.90;;;;;;5105542;28;20039;-56
2022/11/11 04:37:10;;;;;;;11.85;4.35;;;11.10;99.90;;;;;;5108480;28;20069;-51
2022/11/11 04:42:19;;;;;;;8.25;4.75;;;11.10;99.90;;;;;;5104379;28;20042;-56
2022/11/11 04:47:29;;;;;;;11.45;5.80;;;11.10;99.90;;;;;;5105310;28;20103;-54
2022/11/11 04:49:55;;;;;;;6.22;4.15;;;11.10;99.90;;;;;;5102607;28;20519;-55
2022/11/11 04:52:26;;;;;;;9.00;4.93;;;11.10;99.90;;;;;;5109389;28;20100;-56
2022/11/11 04:57:45;;;;;;;9.38;4.63;;;11.00;99.90;;;;;;5104461;28;20510;-55
2022/11/11 05:00:14;;;;;;;9.63;5.35;;;11.00;99.90;;;;;;5107651;28;20027;-54
2022/11/11 05:05:24;;;;;;;7.07;4.57;;;11.00;99.90;;;;;;5105900;28;20019;-56
2022/11/11 05:10:35;;;;;;;8.57;5.00;;;11.00;99.90;;;;;;5108996;28;20425;-56
2022/11/11 05:21:20;;;;;;;6.97;5.43;;;10.90;99.90;;;;;;5113315;28;20034;-56
2022/11/11 05:26:30;;;;;;;7.60;4.82;;;10.90;99.90;;;;;;5106985;28;20030;-56
2022/11/11 05:28:56;;;;;;;13.52;5.70;;;10.90;99.90;;;;;;5112818;28;20102;-53
2022/11/11 05:31:21;;;;;;;9.77;5.82;;;10.90;99.90;;;;;;5112654;28;20026;-52
2022/11/11 05:33:47;;;;;;;11.13;5.57;;;10.80;99.90;;;;;;5109316;28;20023;-55
2022/11/11 05:36:12;;;;;;;7.93;5.15;;;10.80;99.90;;;;;;5115065;27;20023;-56
2022/11/11 05:38:38;;;;;;;10.68;5.20;;;10.90;99.90;;;;;;5112803;28;20020;-55
2022/11/11 05:41:06;;;;;;;9.32;5.70;;;10.80;99.90;;;;;;5112726;28;20040;-54
2022/11/11 05:43:32;;;;;;;15.20;5.45;;;10.80;99.90;;;;;;5112628;28;20050;-54
2022/11/11 05:45:57;;;;;;;10.18;5.85;;;10.80;99.90;;;;;;5112705;28;20024;-55
2022/11/11 05:48:23;;;;;;;7.10;4.50;;;10.80;99.90;;;;;;5113114;28;20072;-56
2022/11/11 05:50:48;;;;;;;10.93;5.55;;;10.80;99.90;;;;;;5112704;28;20521;-55
2022/11/11 05:53:14;;;;;;;12.13;6.05;;;10.80;99.90;;;;;;5104139;28;20519;-55
2022/11/11 05:55:40;;;;;;;10.90;5.53;;;10.80;99.90;;;;;;5112743;28;20038;-53
2022/11/11 05:58:05;;;;;;;9.40;6.10;;;10.70;99.90;;;;;;5112246;28;20031;-55
2022/11/11 06:00:31;;;;;;;9.48;6.03;;;10.70;99.90;;;;;;5112132;28;20015;-56
2022/11/11 06:03:04;;;;;;;11.68;5.65;;;10.70;99.90;;;;;;5097227;28;20051;-55
2022/11/11 06:05:30;;;;;;;10.45;6.60;;;10.70;99.90;;;;;;5106748;28;20027;-56
2022/11/11 06:07:55;;;;;;;7.50;6.20;;;10.70;99.90;;;;;;5112604;28;20024;-55
2022/11/11 06:10:30;;;;;;;9.25;6.28;;;10.70;99.90;;;;;;5106705;28;20019;-52
2022/11/11 06:13:08;;;;;;;11.60;7.18;;;10.60;99.90;;;;;;5101136;28;20465;-56
2022/11/11 06:15:35;;;;;;;10.20;6.38;;;10.70;99.90;;;;;;5112593;28;20030;-55
2022/11/11 06:18:02;;;;;;;15.07;6.68;;;10.60;99.90;;;;;;5112418;28;20022;-56
2022/11/11 06:20:28;;;;;;;9.35;6.30;;;10.60;99.90;;;;;;5112243;28;20020;-54
2022/11/11 06:22:56;;;;;;;14.02;7.18;;;10.60;99.90;;;;;;5111820;28;20031;-55
2022/11/11 06:28:11;;;;;;;10.95;7.93;;;10.60;99.90;;;;;;5111961;28;20122;-57
2022/11/11 06:30:37;;;;;;;10.98;6.30;;;10.50;99.90;;;;;;5111044;28;20160;-56
2022/11/11 06:33:03;;;;;;;13.52;7.32;;;10.50;99.90;;;;;;5111542;28;20028;-55
2022/11/11 06:35:29;;;;;;;13.65;7.22;;;10.50;99.90;;;;;;5111934;28;20020;-55
2022/11/11 06:37:54;;;;;;;10.80;7.90;;;10.50;99.90;;;;;;5112010;28;20028;-56
2022/11/11 06:40:20;;;;;;;13.10;7.45;;;10.40;99.90;;;;;;5111947;28;20035;-55
2022/11/11 06:42:45;;;;;;;9.38;7.35;;;10.50;99.90;;;;;;5111672;28;20399;-55
2022/11/11 06:45:11;;;;;;;9.82;7.07;;;10.50;99.90;;;;;;5111775;28;20103;-54
2022/11/11 06:47:36;;;;;;;10.25;7.80;;;10.40;99.90;;;;;;5111696;28;20024;-55
2022/11/11 06:50:02;;;;;;;12.57;8.07;;;10.50;99.90;;;;;;5111361;28;20007;-55
2022/11/11 06:52:28;;;;;;;12.45;8.55;;;10.40;99.90;;;;;;5111611;28;20406;-56
2022/11/11 06:54:53;;;;;;;13.02;8.68;;;10.40;99.90;;;;;;5111755;28;20019;-55
2022/11/11 06:57:22;;;;;;;11.85;8.45;;;10.40;99.90;;;;;;5111780;28;20027;-55
2022/11/11 06:59:47;;;;;;;12.88;8.50;;;10.40;99.90;;;;;;5111447;28;20031;-56
2022/11/11 07:02:13;;;;;;;11.70;8.65;;;10.40;99.90;;;;;;5110919;28;20088;-52
2022/11/11 07:04:39;;;;;;;13.93;8.48;;;10.40;99.90;;;;;;5111587;28;20707;-55
2022/11/11 07:07:04;;;;;;;21.77;9.43;;;10.30;99.90;;;;;;5111627;28;20581;-56
2022/11/11 07:09:30;;;;;;;14.55;9.10;;;10.30;99.90;;;;;;5111193;28;20020;-56
2022/11/11 07:11:55;;;;;;;14.35;8.65;;;10.40;99.90;;;;;;5110957;28;20395;-55
2022/11/11 07:14:21;;;;;;;17.80;9.60;;;10.40;99.90;;;;;;5111356;28;20455;-54
2022/11/11 07:16:46;;;;;;;12.93;9.05;;;10.40;99.90;;;;;;5111315;28;20043;-52
2022/11/11 07:19:12;;;;;;;15.00;9.98;;;10.40;99.90;;;;;;5111232;28;20038;-55
2022/11/11 07:21:38;;;;;;;20.63;10.48;;;10.30;99.90;;;;;;5110905;28;20038;-53
2022/11/11 07:24:04;;;;;;;23.83;10.93;;;10.40;99.90;;;;;;5110635;28;20020;-55
2022/11/11 07:26:30;;;;;;;18.67;10.32;;;10.30;99.90;;;;;;5110952;28;20024;-56
2022/11/11 07:28:55;;;;;;;17.98;10.27;;;10.40;99.90;;;;;;5110713;28;20103;-55
2022/11/11 07:31:21;;;;;;;17.92;11.45;;;10.30;99.90;;;;;;5111284;28;20020;-56
2022/11/11 07:33:46;;;;;;;16.42;10.52;;;10.30;99.90;;;;;;5111321;28;20661;-55
2022/11/11 07:36:12;;;;;;;19.65;11.20;;;10.30;99.90;;;;;;5110760;28;20127;-55
2022/11/11 07:38:37;;;;;;;17.05;9.63;;;10.30;99.90;;;;;;5110700;28;20038;-55
2022/11/11 07:41:03;;;;;;;16.67;11.38;;;10.30;99.90;;;;;;5110323;28;20058;-54
2022/11/11 07:43:29;;;;;;;18.50;11.90;;;10.30;99.90;;;;;;5109637;28;20110;-52
2022/11/11 07:45:55;;;;;;;15.57;10.82;;;10.30;99.90;;;;;;5110520;28;21209;-52
2022/11/11 07:48:20;;;;;;;18.77;11.48;;;10.30;99.90;;;;;;5110856;28;20538;-55
2022/11/11 07:50:46;;;;;;;25.10;12.52;;;10.30;99.90;;;;;;5110500;28;20031;-55
2022/11/11 07:53:11;;;;;;;20.48;11.80;;;10.40;99.90;;;;;;5109974;28;20514;-52
2022/11/11 07:55:37;;;;;;;16.38;11.07;;;10.30;99.90;;;;;;5110786;28;20031;-53
2022/11/11 07:58:02;;;;;;;18.17;11.25;;;10.30;99.90;;;;;;5110085;27;20036;-54
2022/11/11 08:00:28;;;;;;;16.80;11.43;;;10.30;99.90;;;;;;5099457;28;20023;-52
2022/11/11 08:02:53;;;;;;;23.83;12.98;;;10.30;99.90;;;;;;5101846;28;20024;-52
2022/11/11 08:05:19;;;;;;;17.48;12.38;;;10.30;99.90;;;;;;5110176;28;20028;-55
2022/11/11 08:07:45;;;;;;;16.45;12.25;;;10.30;99.90;;;;;;5110119;28;20027;-54
2022/11/11 08:10:11;;;;;;;17.92;10.20;;;10.30;99.90;;;;;;5110336;28;20011;-57
2022/11/11 08:15:21;;;;;;;21.20;11.45;;;10.40;99.90;;;;;;5107331;28;20100;-55
2022/11/11 08:17:47;;;;;;;18.15;11.48;;;10.40;99.90;;;;;;5109897;28;20031;-53
2022/11/11 08:20:12;;;;;;;19.30;12.48;;;10.40;99.90;;;;;;5109884;28;20375;-55
2022/11/11 08:22:39;;;;;;;17.98;11.60;;;10.50;99.90;;;;;;5109570;28;20130;-55
2022/11/11 08:25:12;;;;;;;26.58;12.63;;;10.50;99.90;;;;;;5107702;28;20012;-56
2022/11/11 08:27:38;;;;;;;20.15;11.93;;;10.40;99.90;;;;;;5104063;28;20019;-56
2022/11/11 08:30:05;;;;;;;15.18;13.15;;;10.40;99.90;;;;;;5109991;28;20498;-55
2022/11/11 08:32:30;;;;;;;17.10;12.00;;;10.40;99.90;;;;;;5108021;28;20051;-55
2022/11/11 08:34:56;;;;;;;20.23;13.35;;;10.50;99.90;;;;;;5105272;28;20028;-55
2022/11/11 08:37:22;;;;;;;23.08;12.82;;;10.50;99.90;;;;;;5108389;28;20039;-52
2022/11/11 08:39:47;;;;;;;18.95;13.27;;;10.50;99.90;;;;;;5109660;28;20400;-58
2022/11/11 08:42:13;;;;;;;21.23;12.95;;;10.50;99.90;;;;;;5109046;28;20164;-55
2022/11/11 08:44:38;;;;;;;21.75;13.95;;;10.50;99.90;;;;;;5109761;28;20023;-54
2022/11/11 08:47:04;;;;;;;17.00;12.02;;;10.50;99.90;;;;;;5104276;28;20503;-56
2022/11/11 08:49:29;;;;;;;22.17;13.55;;;10.50;99.90;;;;;;5107742;28;20031;-56
2022/11/11 08:51:55;;;;;;;19.65;13.15;;;10.50;99.90;;;;;;5109195;28;20034;-55
2022/11/11 08:54:20;;;;;;;24.70;13.05;;;10.50;99.90;;;;;;5108570;28;20035;-53
2022/11/11 08:56:46;;;;;;;20.17;13.52;;;10.50;99.90;;;;;;5109596;28;20483;-55
2022/11/11 08:59:12;;;;;;;25.10;14.27;;;10.50;99.90;;;;;;5103510;28;20030;-58
2022/11/11 09:01:37;;;;;;;21.30;13.52;;;10.60;99.90;;;;;;5108938;28;20386;-53
2022/11/11 09:04:03;;;;;;;23.08;13.43;;;10.60;99.90;;;;;;5100956;28;20436;-52
2022/11/11 09:06:29;;;;;;;24.85;14.13;;;10.60;99.90;;;;;;5109540;28;20554;-56
2022/11/11 09:08:54;;;;;;;20.25;13.85;;;10.70;99.90;;;;;;5098164;28;20098;-55
2022/11/11 09:11:20;;;;;;;24.02;14.43;;;10.70;99.90;;;;;;5109538;28;20055;-55
2022/11/11 09:13:47;;;;;;;20.83;13.05;;;10.70;99.90;;;;;;5100995;28;20388;-55
2022/11/11 09:16:13;;;;;;;19.02;13.25;;;10.70;99.90;;;;;;5108607;28;20034;-55
2022/11/11 09:18:39;;;;;;;24.88;14.07;;;10.70;99.90;;;;;;5105460;28;20411;-55
2022/11/11 09:21:04;;;;;;;24.95;13.77;;;10.70;99.90;;;;;;5107754;28;20019;-56
2022/11/11 09:23:31;;;;;;;21.42;14.80;;;10.80;99.90;;;;;;5108761;28;20031;-54
2022/11/11 09:25:59;;;;;;;20.55;14.07;;;10.80;99.90;;;;;;5108739;28;20098;-56
2022/11/11 09:28:24;;;;;;;26.17;14.90;;;10.80;99.90;;;;;;5087825;28;20055;-55
2022/11/11 09:30:50;;;;;;;21.38;14.32;;;10.80;99.90;;;;;;5108539;28;20453;-53
2022/11/11 09:33:17;;;;;;;19.88;14.35;;;10.80;99.90;;;;;;5109015;28;20530;-52
2022/11/11 09:35:42;;;;;;;20.15;15.00;;;10.80;99.90;;;;;;5094583;28;20047;-55
2022/11/11 09:38:08;;;;;;;22.55;14.20;;;10.80;99.90;;;;;;5106915;28;20059;-54
2022/11/11 09:40:47;;;;;;;19.63;14.60;;;10.90;99.90;;;;;;5108161;28;20132;-52
2022/11/11 09:43:42;;;;;;;17.95;13.02;;;10.90;99.90;;;;;;5092391;28;20586;-56
2022/11/11 09:46:32;;;;;;;17.65;13.85;;;10.90;99.90;;;;;;5108431;28;20562;-55
2022/11/11 09:49:11;;;;;;;20.50;14.05;;;10.90;99.90;;;;;;5103841;28;20099;-56
2022/11/11 09:51:53;;;;;;;22.55;14.65;;;10.90;99.90;;;;;;5098181;28;20031;-54
2022/11/11 09:54:30;;;;;;;22.20;13.90;;;10.90;99.90;;;;;;5104167;28;20023;-52
2022/11/11 09:57:00;;;;;;;23.15;14.90;;;10.90;99.90;;;;;;5103341;28;20030;-55
2022/11/11 09:59:54;;;;;;;26.25;15.35;;;10.90;99.90;;;;;;5108602;28;20088;-54
2022/11/11 10:02:41;;;;;;;22.45;14.88;;;10.90;99.90;;;;;;5094054;28;20032;-56
2022/11/11 10:05:21;;;;;;;19.95;13.80;;;10.90;99.90;;;;;;5104320;28;20034;-55
2022/11/11 10:08:09;;;;;;;19.48;14.07;;;10.90;99.90;;;;;;5112504;28;20099;-54
2022/11/11 10:10:50;;;;;;;22.10;14.38;;;10.90;99.90;;;;;;5088289;28;20148;-56
2022/11/11 10:13:30;;;;;;;24.23;13.95;;;10.90;99.90;;;;;;5110232;28;20027;-57
2022/11/11 10:16:05;;;;;;;20.65;13.23;;;10.90;99.90;;;;;;5110013;28;20019;-57
2022/11/11 10:19:02;;;;;;;20.30;14.15;;;11.00;99.90;;;;;;5111252;28;20036;-60
2022/11/11 10:21:42;;;;;;;21.27;14.27;;;10.90;99.90;;;;;;5104669;28;20411;-55
2022/11/11 10:24:14;;;;;;;21.23;14.45;;;10.90;99.90;;;;;;5109448;28;20028;-57
2022/11/11 10:26:42;;;;;;;17.75;13.43;;;11.00;99.90;;;;;;5112918;28;20030;-56
2022/11/11 10:29:45;;;;;;;26.10;14.73;;;11.00;99.90;;;;;;5111425;28;20028;-57
2022/11/11 10:32:19;;;;;;;16.58;13.63;;;11.00;99.90;;;;;;5102378;28;20574;-57
2022/11/11 10:34:44;;;;;;;21.42;12.65;;;11.00;99.90;;;;;;5109612;28;20035;-56
2022/11/11 10:37:39;;;;;;;24.60;14.07;;;11.10;99.90;;;;;;5111935;28;20019;-57
2022/11/11 10:40:22;;;;;;;21.08;12.68;;;11.10;99.90;;;;;;5104668;28;20063;-58
2022/11/11 10:42:48;;;;;;;19.52;12.60;;;11.10;99.90;;;;;;5111198;28;20062;-58
2022/11/11 10:45:26;;;;;;;22.00;13.73;;;11.10;99.90;;;;;;5111917;28;20059;-57
2022/11/11 10:48:04;;;;;;;21.70;13.65;;;11.10;99.90;;;;;;5111275;28;20156;-57
2022/11/11 10:50:38;;;;;;;18.90;13.43;;;11.20;99.90;;;;;;5111870;28;20421;-56
2022/11/11 10:53:21;;;;;;;19.58;12.90;;;11.20;99.90;;;;;;5110907;28;20016;-57
2022/11/11 10:56:03;;;;;;;16.42;12.40;;;11.20;99.90;;;;;;5112001;28;20028;-57
2022/11/11 10:58:47;;;;;;;18.80;12.65;;;11.20;99.90;;;;;;5104428;28;20040;-57
2022/11/11 11:01:19;;;;;;;18.50;12.25;;;11.30;99.90;;;;;;5104243;28;20038;-57
2022/11/11 11:03:49;;;;;;;17.45;12.82;;;11.30;99.90;;;;;;5111900;28;20114;-57
2022/11/11 11:06:24;;;;;;;17.80;11.82;;;11.30;99.90;;;;;;5102463;28;20028;-55
2022/11/11 11:09:13;;;;;;;18.45;12.75;;;11.30;99.90;;;;;;5111475;28;20522;-57
2022/11/11 11:11:47;;;;;;;19.52;11.95;;;11.40;99.90;;;;;;5110232;28;20548;-56
2022/11/11 11:14:21;;;;;;;21.83;11.68;;;11.40;99.90;;;;;;5111465;28;20024;-57
2022/11/11 11:16:51;;;;;;;20.02;11.95;;;11.40;99.90;;;;;;5110281;28;20031;-56
2022/11/11 11:19:22;;;;;;;19.27;13.20;;;11.40;99.90;;;;;;5103457;28;20025;-57
2022/11/11 11:21:56;;;;;;;18.17;12.63;;;11.50;99.90;;;;;;5105358;28;20023;-55
2022/11/11 11:24:26;;;;;;;15.77;12.80;;;11.40;99.90;;;;;;5104196;28;20426;-54
2022/11/11 11:27:00;;;;;;;19.92;13.35;;;11.50;99.90;;;;;;5110982;28;20016;-56
2022/11/11 11:29:33;;;;;;;17.52;12.13;;;11.50;99.90;;;;;;5104269;28;20072;-53
2022/11/11 11:32:28;;;;;;;18.40;12.45;;;11.50;99.90;;;;;;5108874;28;20100;-55
2022/11/11 11:34:55;;;;;;;20.42;12.25;;;11.50;99.90;;;;;;5102685;28;20040;-54
2022/11/11 11:37:23;;;;;;;14.13;11.27;;;11.50;99.90;;;;;;5108684;28;20024;-57
2022/11/11 11:39:58;;;;;;;15.75;11.25;;;11.50;99.90;;;;;;5104897;27;20043;-58
2022/11/11 11:42:32;;;;;;;17.50;11.85;;;11.50;99.90;;;;;;5110396;28;20035;-53
2022/11/11 11:45:15;;;;;;;19.42;11.65;;;11.50;99.90;;;;;;5108183;28;20089;-54
2022/11/11 11:48:05;;;;;;;17.75;13.05;;;11.60;99.90;;;;;;5110330;27;20043;-56
2022/11/11 11:50:49;;;;;;;16.73;12.45;;;11.60;99.90;;;;;;5092646;28;20050;-52
2022/11/11 11:53:25;;;;;;;26.85;13.23;;;11.60;99.90;;;;;;5101919;28;20522;-56
2022/11/11 11:56:12;;;;;;;14.98;11.18;;;11.60;99.90;;;;;;5110666;28;20494;-53
2022/11/11 11:58:52;;;;;;;18.50;11.57;;;11.60;99.90;;;;;;5107183;27;21508;-56
2022/11/11 12:01:28;;;;;;;14.95;11.15;;;11.60;99.90;;;;;;5107875;28;20129;-54
2022/11/11 12:04:14;;;;;;;19.05;13.02;;;11.60;99.90;;;;;;5109825;28;20030;-56
2022/11/11 12:06:50;;;;;;;17.83;11.52;;;11.70;99.90;;;;;;5109992;28;20024;-57
2022/11/11 12:09:19;;;;;;;17.58;11.65;;;11.70;99.90;;;;;;5102107;28;20035;-55
2022/11/11 12:11:54;;;;;;;16.13;10.95;;;11.60;99.90;;;;;;5108428;28;20088;-54
2022/11/11 12:14:57;;;;;;;19.92;11.80;;;11.70;99.90;;;;;;5102548;28;20558;-56
2022/11/11 12:17:51;;;;;;;17.83;12.13;;;11.70;99.90;;;;;;5105092;28;20102;-55
2022/11/11 12:20:23;;;;;;;16.42;11.13;;;11.70;99.90;;;;;;5104843;28;20020;-53
2022/11/11 12:22:55;;;;;;;17.67;11.38;;;11.70;99.90;;;;;;5105672;28;20510;-55
2022/11/11 12:25:57;;;;;;;16.58;10.82;;;11.70;99.90;;;;;;5108109;28;20019;-56
2022/11/11 12:28:54;;;;;;;18.92;13.93;;;11.80;99.90;;;;;;5102253;28;20507;-54
2022/11/11 12:31:27;;;;;;;20.90;15.30;;;11.80;99.90;;;;;;5097477;28;20028;-56
2022/11/11 12:34:30;;;;;;;17.90;13.63;;;11.80;99.90;;;;;;5109988;28;20095;-53
2022/11/11 12:37:12;;;;;;;14.90;11.77;;;11.70;99.90;;;;;;5108720;28;20104;-56
2022/11/11 12:39:46;;;;;;;21.77;13.77;;;11.70;99.90;;;;;;5104485;28;20042;-53
2022/11/11 12:42:25;;;;;;;24.10;16.17;;;11.70;99.90;;;;;;5104067;28;20555;-54
2022/11/11 12:45:14;;;;;;;16.55;12.43;;;11.70;99.90;;;;;;5102106;28;20360;-57
2022/11/11 12:47:57;;;;;;;17.15;12.80;;;11.60;99.90;;;;;;5109469;28;20019;-54
2022/11/11 12:50:41;;;;;;;20.20;11.88;;;11.70;99.90;;;;;;5095757;28;20031;-55
2022/11/11 12:53:23;;;;;;;17.55;13.15;;;11.70;99.90;;;;;;5108659;28;20035;-55
2022/11/11 12:56:17;;;;;;;14.93;12.55;;;11.60;99.90;;;;;;5109547;28;20387;-53
2022/11/11 12:59:04;;;;;;;21.52;13.18;;;11.60;99.90;;;;;;5102815;28;20070;-53
2022/11/11 13:01:36;;;;;;;15.93;12.07;;;11.60;99.90;;;;;;5107972;28;20499;-52
2022/11/11 13:04:28;;;;;;;17.65;13.02;;;11.60;99.90;;;;;;5108916;28;20023;-53
2022/11/11 13:07:12;;;;;;;16.95;12.50;;;11.60;99.90;;;;;;5102147;28;20135;-56
2022/11/11 13:09:47;;;;;;;14.82;11.75;;;11.60;99.90;;;;;;5109612;28;20325;-53
2022/11/11 13:12:17;;;;;;;18.48;13.07;;;11.60;99.90;;;;;;5108947;28;20075;-55
2022/11/11 13:14:48;;;;;;;20.15;13.70;;;11.60;99.90;;;;;;5109164;28;20414;-57
2022/11/11 13:17:14;;;;;;;19.02;13.30;;;11.60;99.90;;;;;;5108700;28;20028;-54
2022/11/11 13:19:43;;;;;;;21.45;13.98;;;11.60;99.90;;;;;;5108960;28;20487;-55
2022/11/11 13:22:11;;;;;;;18.13;14.00;;;11.50;99.90;;;;;;5109136;28;20089;-55
2022/11/11 13:24:37;;;;;;;17.88;12.80;;;11.60;99.90;;;;;;5108199;28;20023;-54
2022/11/11 13:27:11;;;;;;;17.10;11.73;;;11.50;99.90;;;;;;5108414;28;20027;-56
2022/11/11 13:30:03;;;;;;;20.60;14.48;;;11.50;99.90;;;;;;5106227;28;20028;-56
2022/11/11 13:32:40;;;;;;;16.95;12.38;;;11.60;99.90;;;;;;5105714;28;20042;-53
2022/11/11 13:35:29;;;;;;;14.35;11.98;;;11.60;99.90;;;;;;5101445;28;20016;-53
2022/11/11 13:37:55;;;;;;;19.13;11.95;;;11.60;99.90;;;;;;5106435;28;20023;-57
2022/11/11 13:40:38;;;;;;;18.20;12.05;;;11.60;99.90;;;;;;5108926;28;20106;-54
2022/11/11 13:43:14;;;;;;;15.95;11.75;;;11.60;99.90;;;;;;5111260;28;20038;-55
2022/11/11 13:45:42;;;;;;;17.35;12.07;;;11.60;99.90;;;;;;5101511;28;20057;-54
2022/11/11 13:48:19;;;;;;;14.50;11.38;;;11.60;99.90;;;;;;5111823;28;20019;-56
2022/11/11 13:50:44;;;;;;;15.45;11.00;;;11.60;99.90;;;;;;5096642;28;20644;-54
2022/11/11 13:53:31;;;;;;;17.23;12.93;;;11.50;99.90;;;;;;5111711;28;20047;-56
2022/11/11 13:56:02;;;;;;;14.32;11.82;;;11.50;99.90;;;;;;5112152;28;20032;-56
2022/11/11 13:58:38;;;;;;;16.48;11.32;;;11.50;99.90;;;;;;5111171;28;20039;-56
2022/11/11 14:01:06;;;;;;;18.40;10.98;;;11.50;99.90;;;;;;5106247;28;20031;-56
2022/11/11 14:03:56;;;;;;;15.45;10.88;;;11.50;99.90;;;;;;5111485;28;20107;-53
2022/11/11 14:06:21;;;;;;;10.82;9.68;;;11.50;99.90;;;;;;5105813;28;20505;-52
2022/11/11 14:08:49;;;;;;;13.43;10.43;;;11.50;99.90;;;;;;5111912;28;20019;-57
2022/11/11 14:11:24;;;;;;;17.08;11.05;;;11.50;99.90;;;;;;5103939;28;20198;-55
2022/11/11 14:13:53;;;;;;;15.75;10.55;;;11.50;99.90;;;;;;5110664;28;20019;-55
2022/11/11 14:16:34;;;;;;;15.70;10.32;;;11.40;99.90;;;;;;5112022;28;20065;-56